createdAt,value
2023-01-05T00:01:14.471Z,11.07
2023-01-05T00:03:42.896Z,10.93
2023-01-05T00:06:13.707Z,11.23
2023-01-05T00:08:43.062Z,11.06
2023-01-05T00:11:30.876Z,10.81
2023-01-05T00:14:16.868Z,11.14
2023-01-05T00:17:03.802Z,11.02
2023-01-05T00:19:49.829Z,11.14
2023-01-05T00:22:33.761Z,10.98
2023-01-05T00:25:11.228Z,11.07
2023-01-05T00:27:41.533Z,10.88
2023-01-05T00:30:11.149Z,10.59
2023-01-05T00:32:42.513Z,10.93
2023-01-05T00:35:12.014Z,10.96
2023-01-05T00:37:40.648Z,10.95
2023-01-05T00:40:11.137Z,10.71
2023-01-05T00:42:39.468Z,10.50
2023-01-05T00:45:09.720Z,11.21
2023-01-05T00:47:38.016Z,10.92
2023-01-05T00:50:09.813Z,10.42
2023-01-05T00:52:38.217Z,10.19
2023-01-05T00:55:07.195Z,10.49
2023-01-05T00:57:35.648Z,10.89
2023-01-05T01:00:04.541Z,10.81
2023-01-05T01:02:36.039Z,10.98
2023-01-05T01:05:08.138Z,10.66
2023-01-05T01:07:36.209Z,10.49
2023-01-05T01:10:07.212Z,10.70
2023-01-05T01:12:35.374Z,11.05
2023-01-05T01:15:03.513Z,10.68
2023-01-05T01:17:32.846Z,10.68
2023-01-05T01:20:00.947Z,10.87
2023-01-05T01:22:30.592Z,10.60
2023-01-05T01:24:58.669Z,10.74
2023-01-05T01:27:27.303Z,10.19
2023-01-05T01:29:55.482Z,10.94
2023-01-05T01:32:24.533Z,10.69
2023-01-05T01:34:52.766Z,10.48
2023-01-05T01:37:20.947Z,10.49
2023-01-05T01:39:54.893Z,10.67
2023-01-05T01:42:23.584Z,10.56
2023-01-05T01:44:58.920Z,10.42
2023-01-05T01:47:41.218Z,10.41
2023-01-05T01:50:16.455Z,10.54
2023-01-05T01:52:46.774Z,10.60
2023-01-05T01:55:16.935Z,10.70
2023-01-05T01:57:46.805Z,10.86
2023-01-05T02:00:15.828Z,10.48
2023-01-05T02:02:49.380Z,10.40
2023-01-05T02:05:23.817Z,10.64
2023-01-05T02:07:52.000Z,10.58
2023-01-05T02:10:29.283Z,10.79
2023-01-05T02:13:08.716Z,10.89
2023-01-05T02:15:45.807Z,10.91
2023-01-05T02:18:26.774Z,11.25
2023-01-05T02:21:14.919Z,11.29
2023-01-05T02:24:35.263Z,11.32
2023-01-05T02:27:42.751Z,11.55
2023-01-05T02:30:44.862Z,11.94
2023-01-05T02:33:26.888Z,11.33
2023-01-05T02:36:04.202Z,11.23
2023-01-05T02:38:39.908Z,11.37
2023-01-05T02:41:14.365Z,11.19
2023-01-05T02:43:45.532Z,11.13
2023-01-05T02:46:13.794Z,11.90
2023-01-05T02:48:45.218Z,11.67
2023-01-05T02:51:17.467Z,11.59
2023-01-05T02:53:50.928Z,11.51
2023-01-05T02:56:26.251Z,11.63
2023-01-05T02:59:00.924Z,11.22
2023-01-05T03:01:34.433Z,11.04
2023-01-05T03:04:13.598Z,11.27
2023-01-05T03:06:48.832Z,10.77
2023-01-05T03:09:26.046Z,11.32
2023-01-05T03:12:20.440Z,11.22
2023-01-05T03:14:53.800Z,11.41
2023-01-05T03:17:28.942Z,11.05
2023-01-05T03:19:59.996Z,11.28
2023-01-05T03:22:49.238Z,11.26
2023-01-05T03:25:37.356Z,11.44
2023-01-05T03:28:28.475Z,11.33
2023-01-05T03:31:19.567Z,11.33
2023-01-05T03:34:15.835Z,11.19
2023-01-05T03:36:57.467Z,11.56
2023-01-05T03:39:27.587Z,11.85
2023-01-05T03:41:58.622Z,11.78
2023-01-05T03:44:27.818Z,11.93
2023-01-05T03:46:56.180Z,12.08
2023-01-05T03:49:24.339Z,11.85
2023-01-05T03:51:54.043Z,11.37
2023-01-05T03:54:22.741Z,11.71
2023-01-05T03:56:50.944Z,11.33
2023-01-05T03:59:19.481Z,11.87
2023-01-05T04:01:49.893Z,11.58
2023-01-05T04:04:18.578Z,11.62
2023-01-05T04:06:47.319Z,11.37
2023-01-05T04:09:18.300Z,11.07
2023-01-05T04:11:47.219Z,11.23
2023-01-05T04:14:15.447Z,11.63
2023-01-05T04:16:43.728Z,11.20
2023-01-05T04:19:20.118Z,11.38
2023-01-05T04:21:52.028Z,11.59
2023-01-05T04:24:23.271Z,11.31
2023-01-05T04:26:51.364Z,10.78
2023-01-05T04:29:22.226Z,11.01
2023-01-05T04:31:51.812Z,11.26
2023-01-05T04:34:21.095Z,10.93
2023-01-05T04:36:51.344Z,11.01
2023-01-05T04:39:23.722Z,11.32
2023-01-05T04:41:52.049Z,11.19
2023-01-05T04:44:21.973Z,11.42
2023-01-05T04:46:51.379Z,11.08
2023-01-05T04:49:20.604Z,10.97
2023-01-05T04:51:51.321Z,11.10
2023-01-05T04:54:24.045Z,11.04
2023-01-05T04:56:52.844Z,10.87
2023-01-05T04:59:21.133Z,11.24
2023-01-05T05:01:50.352Z,10.58
2023-01-05T05:04:18.620Z,10.85
2023-01-05T05:06:50.324Z,10.50
2023-01-05T05:09:20.304Z,10.51
2023-01-05T05:11:51.129Z,10.58
2023-01-05T05:14:23.178Z,10.34
2023-01-05T05:16:51.361Z,10.09
2023-01-05T05:19:19.421Z,10.16
2023-01-05T05:21:47.816Z,10.10
2023-01-05T05:24:16.371Z,9.93
2023-01-05T05:26:46.546Z,9.80
2023-01-05T05:29:16.264Z,9.94
2023-01-05T05:31:44.474Z,9.75
2023-01-05T05:34:12.627Z,10.31
2023-01-05T05:36:40.696Z,9.95
2023-01-05T05:39:08.858Z,10.19
2023-01-05T05:41:37.017Z,10.21
2023-01-05T05:44:05.190Z,10.05
2023-01-05T05:46:34.640Z,10.12
2023-01-05T05:49:02.809Z,10.26
2023-01-05T05:51:31.823Z,10.21
2023-01-05T05:53:59.880Z,9.88
2023-01-05T05:56:28.031Z,10.05
2023-01-05T05:59:01.089Z,10.25
2023-01-05T06:01:30.143Z,10.06
2023-01-05T06:04:00.001Z,9.87
2023-01-05T06:06:31.742Z,10.14
2023-01-05T06:08:59.859Z,10.16
2023-01-05T06:11:27.915Z,10.28
2023-01-05T06:13:56.220Z,10.00
2023-01-05T06:16:24.431Z,10.20
2023-01-05T06:18:52.544Z,9.72
2023-01-05T06:21:22.458Z,9.93
2023-01-05T06:23:50.750Z,9.83
2023-01-05T06:26:18.824Z,10.10
2023-01-05T06:28:46.937Z,10.14
2023-01-05T06:31:15.048Z,10.22
2023-01-05T06:33:43.253Z,9.86
2023-01-05T06:36:11.321Z,10.15
2023-01-05T06:38:40.827Z,10.38
2023-01-05T06:41:08.904Z,10.25
2023-01-05T06:43:36.947Z,9.86
2023-01-05T06:46:05.461Z,8.71
2023-01-05T06:48:33.608Z,8.12
2023-01-05T06:51:01.785Z,8.30
2023-01-05T06:53:29.880Z,8.59
2023-01-05T06:55:59.412Z,8.93
2023-01-05T06:58:27.520Z,9.23
2023-01-05T07:00:55.966Z,9.24
2023-01-05T07:03:24.867Z,9.52
2023-01-05T07:05:53.529Z,9.21
2023-01-05T07:08:21.602Z,8.52
2023-01-05T07:10:49.787Z,8.71
2023-01-05T07:13:19.248Z,8.17
2023-01-05T07:15:47.402Z,8.31
2023-01-05T07:18:15.623Z,6.74
2023-01-05T07:20:43.855Z,6.75
2023-01-05T07:23:11.990Z,6.94
2023-01-05T07:25:40.224Z,7.01
2023-01-05T07:28:08.341Z,7.20
2023-01-05T07:30:37.807Z,7.20
2023-01-05T07:33:05.888Z,7.39
2023-01-05T07:35:34.266Z,7.43
2023-01-05T07:38:02.558Z,7.51
2023-01-05T07:40:30.642Z,7.54
2023-01-05T07:42:58.755Z,7.31
2023-01-05T07:45:27.010Z,7.10
2023-01-05T07:47:56.494Z,7.34
2023-01-05T07:50:24.881Z,7.26
2023-01-05T07:52:53.216Z,7.14
2023-01-05T07:55:21.423Z,7.56
2023-01-05T07:57:49.500Z,7.55
2023-01-05T08:00:17.938Z,7.51
2023-01-05T08:02:46.234Z,7.55
2023-01-05T08:05:15.993Z,7.57
2023-01-05T08:07:44.094Z,7.78
2023-01-05T08:10:30.119Z,7.64
2023-01-05T08:13:20.643Z,7.82
2023-01-05T08:15:51.766Z,8.20
2023-01-05T08:18:20.244Z,8.19
2023-01-05T08:20:54.509Z,8.40
2023-01-05T08:23:25.614Z,8.35
2023-01-05T08:25:55.214Z,8.35
2023-01-05T08:28:23.467Z,8.71
2023-01-05T08:30:51.861Z,8.48
2023-01-05T08:33:20.013Z,8.24
2023-01-05T08:35:49.059Z,8.53
2023-01-05T08:38:26.949Z,8.66
2023-01-05T08:40:58.964Z,8.53
2023-01-05T08:43:27.222Z,8.66
2023-01-05T08:45:55.345Z,9.02
2023-01-05T08:48:23.719Z,8.60
2023-01-05T08:50:51.865Z,8.62
2023-01-05T08:53:21.335Z,8.28
2023-01-05T08:55:49.915Z,8.63
2023-01-05T08:58:18.014Z,8.78
2023-01-05T09:00:46.425Z,8.71
2023-01-05T09:03:14.729Z,8.54
2023-01-05T09:05:43.090Z,8.69
2023-01-05T09:08:11.215Z,8.75
2023-01-05T09:10:40.750Z,8.87
2023-01-05T09:13:10.024Z,8.81
2023-01-05T09:15:38.183Z,8.40
2023-01-05T09:18:06.229Z,8.63
2023-01-05T09:20:39.555Z,8.89
2023-01-05T09:23:08.255Z,8.33
2023-01-05T09:25:36.619Z,8.45
2023-01-05T09:28:06.373Z,8.57
2023-01-05T09:30:41.853Z,8.48
2023-01-05T09:33:12.713Z,8.49
2023-01-05T09:35:40.964Z,8.47
2023-01-05T09:38:09.134Z,8.35
2023-01-05T09:40:42.393Z,8.40
2023-01-05T09:43:19.549Z,8.61
2023-01-05T09:45:49.870Z,8.53
2023-01-05T09:48:20.452Z,9.01
2023-01-05T09:50:52.392Z,8.79
2023-01-05T09:53:29.562Z,8.66
2023-01-05T09:55:59.539Z,8.94
2023-01-05T09:58:35.767Z,8.82
2023-01-05T10:01:10.949Z,8.87
2023-01-05T10:06:35.475Z,8.68
2023-01-05T10:09:06.903Z,8.79
2023-01-05T10:11:58.497Z,8.78
2023-01-05T10:14:33.880Z,9.25
2023-01-05T10:17:38.988Z,8.90
2023-01-05T10:19:56.421Z,8.82
2023-01-05T10:22:39.099Z,8.99
2023-01-05T10:25:18.680Z,8.67
2023-01-05T10:27:56.909Z,9.10
2023-01-05T10:30:38.915Z,9.00
2023-01-05T10:33:39.657Z,9.12
2023-01-05T10:36:28.118Z,9.13
2023-01-05T10:39:16.610Z,9.33
2023-01-05T10:41:55.131Z,9.68
2023-01-05T10:44:42.232Z,10.06
2023-01-05T10:47:13.363Z,10.15
2023-01-05T10:49:43.794Z,10.06
2023-01-05T10:52:15.206Z,9.66
2023-01-05T10:54:47.419Z,9.83
2023-01-05T10:57:37.924Z,9.85
2023-01-05T11:00:11.226Z,9.75
2023-01-05T11:02:43.160Z,10.52
2023-01-05T11:05:32.219Z,10.44
2023-01-05T11:08:03.279Z,9.88
2023-01-05T11:10:34.072Z,9.94
2023-01-05T11:13:07.601Z,10.40
2023-01-05T11:15:43.258Z,10.28
2023-01-05T11:18:25.934Z,9.96
2023-01-05T11:21:11.262Z,10.88
2023-01-05T11:23:41.768Z,10.03
2023-01-05T11:26:22.604Z,10.38
2023-01-05T11:29:02.896Z,10.33
2023-01-05T11:31:36.943Z,10.53
2023-01-05T11:34:14.829Z,10.41
2023-01-05T11:36:43.819Z,10.25
2023-01-05T11:39:24.189Z,9.94
2023-01-05T11:41:52.664Z,10.19
2023-01-05T11:44:23.913Z,10.24
2023-01-05T11:46:52.194Z,10.69
2023-01-05T11:49:21.739Z,10.21
2023-01-05T11:51:49.863Z,10.24
2023-01-05T11:54:34.125Z,9.93
2023-01-05T11:57:16.183Z,10.67
2023-01-05T11:59:46.208Z,10.66
2023-01-05T12:02:44.547Z,11.08
2023-01-05T12:05:25.293Z,10.48
2023-01-05T12:07:59.639Z,10.19
2023-01-05T12:10:43.270Z,10.14
2023-01-05T12:13:29.525Z,10.32
2023-01-05T12:16:12.853Z,10.13
2023-01-05T12:19:07.658Z,10.45
2023-01-05T12:21:40.140Z,9.98
2023-01-05T12:24:31.693Z,10.14
2023-01-05T12:27:14.266Z,10.16
2023-01-05T12:36:34.497Z,10.35
2023-01-05T12:39:20.029Z,9.96
2023-01-05T12:42:05.469Z,10.56
2023-01-05T12:45:00.341Z,10.12
2023-01-05T12:47:52.586Z,9.77
2023-01-05T12:50:27.270Z,9.57
2023-01-05T12:53:03.664Z,9.36
2023-01-05T12:55:39.205Z,9.49
2023-01-05T12:58:14.785Z,8.79
2023-01-05T13:00:46.445Z,9.17
2023-01-05T13:03:25.368Z,8.52
2023-01-05T13:06:01.558Z,8.60
2023-01-05T13:08:38.531Z,8.96
2023-01-05T13:11:17.499Z,8.85
2023-01-05T13:13:49.937Z,8.55
2023-01-05T13:16:22.717Z,8.59
2023-01-05T13:18:56.761Z,8.70
2023-01-05T13:21:27.497Z,8.75
2023-01-05T13:23:58.424Z,8.88
2023-01-05T13:26:30.335Z,9.25
2023-01-05T13:29:02.768Z,8.93
2023-01-05T13:31:54.077Z,9.36
2023-01-05T13:34:42.755Z,9.78
2023-01-05T13:37:33.173Z,8.60
2023-01-05T13:40:18.462Z,5.84
2023-01-05T13:43:16.504Z,5.68
2023-01-05T13:46:14.747Z,5.53
2023-01-05T13:49:08.846Z,5.49
2023-01-05T13:52:00.218Z,6.23
2023-01-05T13:54:49.408Z,6.59
2023-01-05T13:57:23.133Z,6.20
2023-01-05T14:00:06.460Z,8.52
2023-01-05T14:02:42.270Z,6.02
2023-01-05T14:05:18.158Z,6.24
2023-01-05T14:07:46.496Z,6.67
2023-01-05T14:10:24.854Z,6.79
2023-01-05T14:12:55.258Z,6.75
2023-01-05T14:15:38.767Z,7.01
2023-01-05T14:18:08.344Z,7.16
2023-01-05T14:20:44.811Z,7.12
2023-01-05T14:23:50.316Z,7.22
2023-01-05T14:26:18.720Z,7.17
2023-01-05T14:28:49.294Z,7.31
2023-01-05T14:31:51.742Z,7.55
2023-01-05T14:34:24.398Z,7.54
2023-01-05T14:37:07.530Z,7.47
2023-01-05T14:39:45.189Z,7.59
2023-01-05T14:42:28.772Z,7.83
2023-01-05T14:45:01.445Z,7.61
2023-01-05T14:47:41.415Z,7.75
2023-01-05T14:50:29.824Z,7.37
2023-01-05T14:53:01.181Z,7.55
2023-01-05T14:55:40.092Z,7.68
2023-01-05T14:58:14.320Z,7.67
2023-01-05T15:00:49.033Z,7.73
2023-01-05T15:03:25.325Z,8.10
2023-01-05T15:05:59.705Z,7.64
2023-01-05T15:08:45.314Z,8.13
2023-01-05T15:11:39.148Z,8.10
2023-01-05T15:14:38.745Z,7.82
2023-01-05T15:17:45.449Z,8.01
2023-01-05T15:20:45.914Z,7.94
2023-01-05T15:23:36.272Z,8.36
2023-01-05T15:26:43.798Z,7.96
2023-01-05T15:29:36.452Z,8.46
2023-01-05T15:32:11.475Z,7.97
2023-01-05T15:34:45.893Z,7.63
2023-01-05T15:37:19.823Z,7.69
2023-01-05T15:39:49.918Z,8.00
2023-01-05T15:42:23.676Z,7.70
2023-01-05T15:44:54.683Z,7.98
2023-01-05T15:47:26.650Z,7.68
2023-01-05T15:49:58.151Z,8.14
2023-01-05T15:52:34.630Z,8.06
2023-01-05T15:55:05.488Z,8.08
2023-01-05T15:57:33.703Z,7.79
2023-01-05T16:00:01.850Z,7.96
2023-01-05T16:02:39.928Z,8.08
2023-01-05T16:05:17.467Z,8.18
2023-01-05T16:07:52.925Z,8.37
2023-01-05T16:10:23.963Z,8.17
2023-01-05T16:12:56.571Z,8.43
2023-01-05T16:15:26.236Z,8.28
2023-01-05T16:17:58.111Z,8.28
2023-01-05T16:20:27.471Z,8.37
2023-01-05T16:23:08.318Z,8.62
2023-01-05T16:25:41.480Z,8.44
2023-01-05T16:28:17.398Z,8.67
2023-01-05T16:30:47.252Z,8.43
2023-01-05T16:33:27.363Z,8.65
2023-01-05T16:36:08.679Z,8.56
2023-01-05T16:38:38.195Z,8.57
2023-01-05T16:41:21.852Z,8.57
2023-01-05T16:43:58.094Z,8.49
2023-01-05T16:46:39.119Z,8.78
2023-01-05T16:49:41.156Z,8.68
2023-01-05T16:52:24.998Z,8.56
2023-01-05T16:55:27.470Z,8.36
2023-01-05T16:57:56.737Z,8.11
2023-01-05T17:00:37.509Z,8.30
2023-01-05T17:03:29.121Z,7.95
2023-01-05T17:05:58.615Z,8.03
2023-01-05T17:08:31.866Z,7.95
2023-01-05T17:11:03.152Z,7.76
2023-01-05T17:13:38.874Z,8.25
2023-01-05T17:16:07.959Z,8.12
2023-01-05T17:18:36.350Z,7.90
2023-01-05T17:21:05.963Z,8.08
2023-01-05T17:23:36.641Z,7.96
2023-01-05T17:26:09.635Z,7.78
2023-01-05T17:28:39.263Z,7.84
2023-01-05T17:31:08.119Z,8.07
2023-01-05T17:33:36.364Z,7.99
2023-01-05T17:36:04.900Z,7.66
2023-01-05T17:38:33.085Z,8.22
2023-01-05T17:41:01.227Z,8.14
2023-01-05T17:43:30.759Z,7.93
2023-01-05T17:45:59.275Z,7.84
2023-01-05T17:48:27.386Z,7.92
2023-01-05T17:50:55.482Z,8.11
2023-01-05T17:53:23.521Z,7.76
2023-01-05T17:55:51.606Z,7.99
2023-01-05T17:58:19.711Z,8.09
2023-01-05T18:00:49.852Z,7.94
2023-01-05T18:03:22.423Z,7.89
2023-01-05T18:05:52.637Z,8.20
2023-01-05T18:08:22.135Z,7.85
2023-01-05T18:10:50.432Z,7.59
2023-01-05T18:13:21.482Z,7.83
2023-01-05T18:15:55.439Z,7.83
2023-01-05T18:18:24.831Z,8.03
2023-01-05T18:20:53.465Z,7.60
2023-01-05T18:23:24.457Z,7.91
2023-01-05T18:25:52.885Z,7.70
2023-01-05T18:28:21.018Z,7.80
2023-01-05T18:30:49.142Z,7.66
2023-01-05T18:33:18.717Z,8.18
2023-01-05T18:35:50.489Z,7.96
2023-01-05T18:38:18.807Z,7.84
2023-01-05T18:40:49.171Z,7.88
2023-01-05T18:43:17.376Z,7.60
2023-01-05T18:45:45.679Z,7.58
2023-01-05T18:48:13.866Z,7.63
2023-01-05T18:50:49.926Z,7.83
2023-01-05T18:53:18.496Z,7.81
2023-01-05T18:55:47.088Z,7.73
2023-01-05T18:58:16.175Z,7.51
2023-01-05T19:00:45.892Z,7.65
2023-01-05T19:03:14.051Z,7.35
2023-01-05T19:05:45.644Z,7.81
2023-01-05T19:08:14.900Z,7.63
2023-01-05T19:10:43.313Z,7.47
2023-01-05T19:13:11.463Z,7.12
2023-01-05T19:15:39.752Z,7.46
2023-01-05T19:18:07.916Z,7.24
2023-01-05T19:20:36.164Z,7.46
2023-01-05T19:23:05.729Z,7.31
2023-01-05T19:25:33.861Z,7.64
2023-01-05T19:28:02.556Z,7.49
2023-01-05T19:30:31.431Z,7.22
2023-01-05T19:33:01.163Z,7.01
2023-01-05T19:35:31.264Z,7.09
2023-01-05T19:38:00.726Z,7.27
2023-01-05T19:40:30.385Z,7.12
2023-01-05T19:43:08.749Z,7.44
2023-01-05T19:45:40.780Z,7.39
2023-01-05T21:55:14.312Z,6.21
2023-01-05T21:57:42.351Z,6.02
2023-01-05T22:00:11.832Z,6.27
2023-01-05T22:02:40.003Z,5.96
2023-01-05T22:05:08.973Z,6.13
2023-01-05T22:07:37.047Z,6.41
2023-01-05T22:10:07.655Z,5.74
2023-01-05T22:12:35.796Z,5.95
2023-01-05T22:15:04.261Z,5.80
